Aktualne dane pomiarowe

Uwaga, wersja testowa! Automatyczne pobieranie danych za pomocą narzędzi lub skryptów to umożliwiających jest zabronione.

Dane meteo z obszaru Polski uzyskane na podstawie depesz SYNOP pobieranych co godzinę z NWS. Najedź myszką na symbol przedstawiony w tabeli, aby uzyskać informacje co do jego znaczenia. Prosimy pamiętać, że to testowa wersja strony, która jeszcze nie jest ukończona. Stworzono również jest krótki FAQ dotyczący korzystania z tej podstrony Anomalie temperatury w chwili obecnej odniesione są do okresu referencyjnego 1951-2016. Okres ten będzie później zmieniony na 1981-2010. Kliknij ikonę aby pobrać plik CSV. Kliknij ikonę aby wygenerować mapę synoptyczną dla danego terminu.

Wybierz Datę:    

        

Katowice (12560)

Dane terminowe dla wybranej stacji. Kliknij datę, aby otrzymać dane z tego terminu dla wszystkich stacji.

TemperaturaZachmurzenieWiatrCiśnienieOpadyPogoda
 Data t td wb tx tn tg rh  Nt Nl Cl Cm Ch ws wd g1 g2 wx mslp ppp ch 24h 12h t ww ww w1 w2  
2019-06-24 23:00:00 16.8 14.3 15.1--- 8530.0wx-1wx---1025.2 992.0 0.2---------
2019-06-24 22:00:00 17.4 14.5 15.4--- 8330.0wx-1wx--11025.2 992.0 0.6---------
2019-06-24 21:00:00 18.8 14.3 15.8--- 7530.0wx-1wx--11025.0 992.0 0.9---------
2019-06-24 20:00:00 20.1 13.5 15.8--- 6650.0wx-wx2wx---1024.7 991.8 1.0---------
2019-06-24 19:00:00 22.1 13.4 16.6--- 5850.0wx-wx3wx--31024.0 991.4 0.9---------
2019-06-24 18:00:00 23.7 13.3 17.2 27.2 20.8- 5230.0wx-wx4wx-941023.5 991.1 0.7- 0.012------
2019-06-24 17:00:00 24.7 13.6 17.8--- 5030.0wxwxwxwx4wx--41023.1 990.8 0.2---------
2019-06-24 16:00:00 25.7 12.9 17.8--- 4530.0wxwxwxwx5wx--51022.7 990.5 -0.2---------
2019-06-24 15:00:00 26.3 11.6 17.4--- 4030.0wxwxwxwx5wx-951022.5 990.4 -0.4---------
2019-06-24 14:00:00 26.7 10.4 17.1--- 3630.0wxwxwxwx5wx---1022.7 990.6 -0.3---------
2019-06-24 13:00:00 26.0 11.4 17.2--- 4030.0wxwxwxwxwx5wx---1022.9 990.7 -0.1---------
2019-06-24 12:00:00 25.5 12.7 17.6--- 4530.0wxwxwxwxwx5wx--51023.0 990.8 0.2- 0.06------
2019-06-24 11:00:00 24.2 12.8 17.2--- 4930.0wxwxwx3wx--31023.3 990.9 0.6---------
2019-06-24 10:00:00 24.8 13.0 17.5--- 4830.0wxwxwxwx5wx--51023.1 990.8 0.7---------
2019-06-24 09:00:00 24.9 13.1 17.6--- 4830.0wxwxwxwx5wx--51022.9 990.6 0.7---------
2019-06-24 08:00:00 24.1 13.3 17.4--- 5130.0wxwxwxwx5wx---1022.7 990.3 0.7---------
2019-06-24 07:00:00 22.4 14.8 17.5--- 6230.0wxwxwxwx3wx--31022.6 990.1 0.3---------
2019-06-24 06:00:00 20.8 13.0 15.9 23.6 17.3 16 6130.0wx-wx2wx--21022.6 989.9 0.5- 0.012----- 9.3
2019-06-24 05:00:00 19.2 11.5 14.4--- 6130.0wx-wx2wx--21022.5 989.6 0.3---------
2019-06-24 04:00:00 18.3 9.9 13.2--- 5830.0wx-wx1wx--11022.8 989.8 0.7---------
2019-06-24 03:00:00 17.7 8.8 12.5--- 5630.0wxwxwxwxwx1wx--11022.5 989.4 0.2---------
2019-06-24 02:00:00 17.8 8.4 12.3--- 5430.0wxwxwxwx1wx--11022.3 989.3 0.3---------
2019-06-24 01:00:00 17.5 7.8 11.9--- 5350.0wx-wx1wx--11022.2 989.1 0.5---------
2019-06-24 00:00:00 17.7 7.7 12.0--- 5250.0wx-wxwx2wx-721022.3 989.2 0.8- 0.06------
2019-06-23 23:00:00 18.2 9.0 12.8--- 5550.0wx-wxwx2wx--21022.0 989.0 1.0---------
2019-06-23 22:00:00 19.0 9.5 13.4--- 5430.0wx-wxwx1wx---1021.5 988.6 1.3---------
2019-06-23 21:00:00 20.3 9.8 14.1--- 5130.0wx-wxwx2wx-721021.1 988.4 1.5---------
2019-06-23 20:00:00 21.3 9.5 14.4--- 4750.0wx-wx3wx--31020.6 988.0 1.4---------
2019-06-23 19:00:00 22.6 9.7 15.0--- 4450.0wxwxwxwx3wx-731019.7 987.3 0.7---------
2019-06-23 18:00:00 23.6 10.6 15.9 25.5 19.1- 4450.0wxwxwxwx2wx-821019.2 986.9 0.5- 0.012------
2019-06-23 17:00:00 24.5 10.7 16.3--- 4250.0wxwxwxwx4wx--41018.8 986.6 -0.1---------
2019-06-23 16:00:00 25.3 11.5 17.0--- 4230.0wxwxwxwx3wx---1018.7 986.6 -0.3---------
2019-06-23 15:00:00 25.0 11.5 16.9--- 4330.0wxwxwxwx3wx8831018.5 986.4 -0.7---------
2019-06-23 14:00:00 24.7 12.0 17.0--- 4530.0wxwxwxwx4wx-841018.9 986.7 -0.5---------
2019-06-23 13:00:00 24.7 11.6 16.8--- 4430.0wxwxwxwx4wx---1019.1 986.9 -0.2---------
2019-06-23 12:00:00 25.2 12.8 17.6--- 4630.0wxwxwxwx5wx-1051019.2 987.1 0.2- 0.06------
2019-06-23 11:00:00 23.7 12.3 16.7--- 4930.0wxwxwx5wx--51019.5 987.2 0.2---------
2019-06-23 10:00:00 23.8 11.8 16.5--- 4730.0wxwxwxwx5wx-1051019.4 987.1 0.1---------
2019-06-23 09:00:00 23.2 11.3 16.0--- 4730.0wxwxwxwxwx5wx--51019.3 986.9 0.2---------
2019-06-23 08:00:00 22.3 12.3 16.1--- 5330.0wx-wxwx4wx--41019.5 987.0 0.5---------
2019-06-23 07:00:00 20.2 11.1 14.7--- 5630.0wx-wxwx5wx---1019.7 987.0 0.6---------
2019-06-23 06:00:00 19.1 11.4 14.3 23.4 17.4 17 6130.0wx-wxwx5wx--51019.5 986.7 0.5- 0.012----- 8.0
2019-06-23 05:00:00 18.1 10.7 13.5--- 6230.0wxwxwxwx5wx--51019.4 986.5 0.4---------
2019-06-23 04:00:00 17.4 11.0 13.4--- 6650.0wxwxwxwx4wx--41019.4 986.4 0.4---------
2019-06-23 03:00:00 17.8 10.9 13.5--- 6430.0wxwxwxwxwx4wx--41019.1 986.2 0.1---------
2019-06-23 02:00:00 18.6 11.2 14.0--- 6230.0wx-wxwx4wx---1018.9 986.1 -0.1---------
2019-06-23 01:00:00 19.1 11.9 14.6--- 6350.0wx-wxwx5wx--51018.8 986.0 -0.2---------
2019-06-23 00:00:00 19.4 12.6 15.1--- 6550.0wx-wxwx5wx--51018.9 986.1 -0.2- 0.06------
1.6 ms

 

Print Friendly, PDF & Email